Time;durP1;ratioP1;P1;durP2;ratioP2;P2;SDS_P1;SDS_P2;PMS_P1;PMS_P2;Temp;Humidity;BMP_temperature;BMP_pressure;BME280_temperature;BME280_humidity;BME280_pressure;Samples;Min_cycle;Max_cycle;Signal;HPM_P1;HPM_P2
2021/10/02 00:44:54;;;;;;;8.20;4.93;;;;;;;5.84;71.09;97300.50;5054606;28;20486;-65
2021/10/02 00:47:21;;;;;;;7.70;5.97;;;;;;;5.82;70.70;97299.66;5054650;28;20028;-65
2021/10/02 00:49:48;;;;;;;10.32;5.43;;;;;;;5.74;72.29;97297.09;5054754;28;20378;-65
2021/10/02 00:52:16;;;;;;;6.72;5.13;;;;;;;5.75;72.57;97298.81;5054574;28;20035;-65
2021/10/02 00:54:43;;;;;;;10.63;5.28;;;;;;;5.71;72.29;97294.53;5054520;28;20025;-65
2021/10/02 00:57:10;;;;;;;7.65;5.72;;;;;;;5.59;72.93;97285.09;5054391;28;20032;-65
2021/10/02 00:59:37;;;;;;;10.13;5.97;;;;;;;5.62;72.91;97292.84;5054490;28;20035;-65
2021/10/02 01:02:12;;;;;;;11.25;5.88;;;;;;;5.57;72.90;97286.84;5054383;28;20368;-65
2021/10/02 01:04:59;;;;;;;8.88;5.97;;;;;;;5.57;72.81;97281.66;5054392;28;20029;-65
2021/10/02 01:07:39;;;;;;;10.88;5.72;;;;;;;5.50;72.43;97293.78;5054331;28;20037;-65
2021/10/02 01:10:20;;;;;;;10.18;5.60;;;;;;;5.49;72.71;97288.59;5054211;28;20071;-65
2021/10/02 01:12:52;;;;;;;;;;;;;;;5.42;73.37;97283.44;5054552;28;20029;-65
2021/10/02 01:15:41;;;;;;;9.70;5.60;;;;;;;5.39;73.56;97280.03;5054195;28;19974;-65
2021/10/02 01:18:23;;;;;;;10.23;6.35;;;;;;;5.40;73.54;97282.63;5051103;28;20494;-65
2021/10/02 01:21:12;;;;;;;9.48;5.53;;;;;;;5.44;73.53;97280.84;5054121;28;20028;-65
2021/10/02 01:24:05;;;;;;;11.75;6.07;;;;;;;5.45;74.04;97272.22;5053941;28;20037;-65
2021/10/02 01:26:55;;;;;;;8.77;4.97;;;;;;;5.43;74.10;97269.63;5053866;28;20054;-65
2021/10/02 01:29:22;;;;;;;10.90;5.90;;;;;;;5.44;73.94;97271.34;5054024;28;20055;-65
2021/10/02 01:34:39;;;;;;;10.65;5.68;;;;;;;5.45;73.68;97267.03;5053887;28;20029;-65
2021/10/02 01:37:25;;;;;;;8.27;4.88;;;;;;;5.47;72.89;97267.84;5053706;28;20067;-65
2021/10/02 01:48:13;;;;;;;7.65;5.25;;;;;;;5.43;72.40;97271.34;5053780;28;20047;-65
2021/10/02 01:50:40;;;;;;;6.63;5.53;;;;;;;5.38;72.59;97279.16;5053562;28;20021;-65
2021/10/02 01:53:07;;;;;;;9.52;5.57;;;;;;;5.35;72.97;97281.75;5053328;28;20021;-65
2021/10/02 01:55:34;;;;;;;15.52;5.80;;;;;;;5.33;72.86;97275.72;5052989;28;20478;-65
2021/10/02 01:58:06;;;;;;;8.18;5.60;;;;;;;5.28;72.75;97278.34;5053291;28;20426;-65
2021/10/02 02:00:32;;;;;;;9.30;4.63;;;;;;;5.28;72.86;97280.94;5053332;28;20025;-65
2021/10/02 02:03:07;;;;;;;7.20;4.68;;;;;;;5.31;72.81;97282.66;5053201;28;20033;-65
2021/10/02 02:05:35;;;;;;;9.20;5.32;;;;;;;5.34;72.66;97281.75;5053258;28;20466;-65
2021/10/02 02:08:04;;;;;;;7.10;5.03;;;;;;;5.36;72.48;97285.22;5053143;28;20382;-65
2021/10/02 02:10:31;;;;;;;7.20;4.30;;;;;;;5.38;72.03;97283.47;5053186;28;20017;-65
2021/10/02 02:13:00;;;;;;;7.35;4.32;;;;;;;5.34;71.69;97285.22;5053230;28;20174;-65
2021/10/02 02:15:30;;;;;;;7.82;4.90;;;;;;;5.29;71.84;97277.47;5053219;28;20021;-65
2021/10/02 02:18:08;;;;;;;8.02;5.00;;;;;;;5.26;72.23;97284.38;5053176;28;20025;-65
2021/10/02 02:20:39;;;;;;;9.05;5.20;;;;;;;5.15;72.93;97284.47;5053038;28;20601;-65
2021/10/02 02:23:05;;;;;;;;;;;;;;;4.97;74.00;97275.88;5053358;28;20073;-65
2021/10/02 02:25:31;;;;;;;9.35;4.75;;;;;;;4.85;74.01;97279.38;5052849;28;20003;-65
2021/10/02 02:27:58;;;;;;;8.02;5.40;;;;;;;4.76;74.52;97282.84;5052952;28;20466;-65
2021/10/02 02:30:24;;;;;;;13.70;5.10;;;;;;;4.73;74.60;97275.06;5052924;28;20406;-65
2021/10/02 02:32:53;;;;;;;7.18;4.93;;;;;;;4.71;74.75;97276.84;5052957;28;20036;-65
2021/10/02 02:35:20;;;;;;;8.48;4.90;;;;;;;4.73;74.94;97271.63;5051177;28;20060;-65
2021/10/02 02:37:46;;;;;;;11.93;5.13;;;;;;;4.76;74.51;97269.88;5052966;28;20033;-65
2021/10/02 02:40:12;;;;;;;7.40;5.03;;;;;;;4.71;74.43;97270.78;5052811;28;20027;-65
2021/10/02 02:42:38;;;;;;;14.95;5.45;;;;;;;4.68;74.72;97272.53;5052783;28;20032;-65
2021/10/02 02:45:06;;;;;;;6.75;4.90;;;;;;;4.65;74.70;97272.53;5052644;28;20439;-65
2021/10/02 02:47:40;;;;;;;9.73;5.32;;;;;;;4.60;74.82;97276.00;5052724;28;20062;-65
2021/10/02 02:50:11;;;;;;;19.67;5.22;;;;;;;4.55;74.68;97269.06;5051597;28;20029;-65
2021/10/02 02:52:58;;;;;;;9.43;4.97;;;;;;;4.55;74.96;97274.25;5052818;28;20033;-65
2021/10/02 02:55:32;;;;;;;9.75;5.57;;;;;;;4.60;74.76;97269.06;5052770;28;20037;-65
2021/10/02 02:58:03;;;;;;;8.55;4.93;;;;;;;4.60;74.40;97276.84;5052867;28;20025;-65
2021/10/02 03:00:30;;;;;;;11.02;4.90;;;;;;;4.59;74.71;97275.13;5052693;28;20079;-65
2021/10/02 03:02:55;;;;;;;10.35;5.15;;;;;;;4.58;74.67;97270.81;5052641;28;20021;-65
2021/10/02 03:05:23;;;;;;;7.57;4.88;;;;;;;4.57;74.64;97271.66;5052608;28;20021;-65
2021/10/02 03:08:11;;;;;;;9.73;4.60;;;;;;;4.61;74.39;97273.38;5054023;28;20060;-65
2021/10/02 03:10:39;;;;;;;7.38;5.07;;;;;;;4.64;73.96;97273.38;5056915;28;20039;-64
2021/10/02 03:13:11;;;;;;;8.40;5.07;;;;;;;4.57;74.48;97279.44;5057098;28;20017;-65
2021/10/02 03:15:39;;;;;;;6.93;4.45;;;;;;;4.59;74.57;97272.53;5056451;28;20087;-65
2021/10/02 03:18:09;;;;;;;5.40;4.38;;;;;;;4.61;74.31;97273.38;5056360;28;20429;-65
2021/10/02 03:20:37;;;;;;;5.40;4.43;;;;;;;4.59;74.25;97269.94;5056287;28;20032;-65
2021/10/02 03:23:04;;;;;;;7.72;4.40;;;;;;;4.60;74.04;97273.41;5056276;28;20033;-66
2021/10/02 03:25:32;;;;;;;9.50;4.55;;;;;;;4.59;74.02;97274.25;5056202;28;20057;-65
2021/10/02 03:27:59;;;;;;;8.48;4.45;;;;;;;4.58;74.01;97270.81;5056211;28;20052;-65
2021/10/02 03:30:27;;;;;;;13.10;4.57;;;;;;;4.58;73.92;97281.19;5056096;28;20082;-66
2021/10/02 03:32:53;;;;;;;13.63;5.20;;;;;;;4.45;74.06;97267.38;5056095;28;20113;-66
2021/10/02 03:35:19;;;;;;;8.95;5.35;;;;;;;4.49;74.71;97276.88;5055597;28;20102;-65
2021/10/02 03:37:46;;;;;;;8.85;4.60;;;;;;;4.47;74.88;97278.63;5055985;28;20120;-66
2021/10/02 03:40:12;;;;;;;7.97;4.57;;;;;;;4.48;74.22;97272.56;5056020;28;20029;-65
2021/10/02 03:42:53;;;;;;;5.95;4.32;;;;;;;4.49;74.75;97276.88;5055867;28;20029;-66
2021/10/02 03:45:21;;;;;;;11.95;4.43;;;;;;;4.48;74.41;97277.75;5055709;28;20032;-65
2021/10/02 03:47:47;;;;;;;7.47;4.50;;;;;;;4.43;74.94;97276.91;5055747;28;20052;-65
2021/10/02 03:50:13;;;;;;;12.18;4.97;;;;;;;4.48;75.14;97277.75;5055824;28;20463;-65
2021/10/02 03:52:39;;;;;;;10.98;5.00;;;;;;;4.45;75.25;97272.56;5055758;28;20411;-65
2021/10/02 03:55:07;;;;;;;13.57;4.88;;;;;;;4.45;74.84;97272.56;5055822;28;20025;-65
2021/10/02 03:57:33;;;;;;;7.97;4.60;;;;;;;4.44;75.41;97268.25;5055695;28;20029;-65
2021/10/02 03:59:59;;;;;;;9.38;5.95;;;;;;;4.41;76.02;97273.44;5055536;28;20029;-65
2021/10/02 04:02:25;;;;;;;11.57;5.53;;;;;;;4.49;75.58;97274.28;5055532;28;20371;-66
2021/10/02 04:04:51;;;;;;;9.77;5.85;;;;;;;4.49;75.65;97274.28;5055396;28;20048;-66
2021/10/02 04:07:17;;;;;;;12.07;5.43;;;;;;;4.54;76.09;97269.97;5055273;28;20479;-66
2021/10/02 04:09:42;;;;;;;11.07;5.10;;;;;;;4.61;76.09;97277.72;5055333;28;20025;-65
2021/10/02 04:12:08;;;;;;;10.68;5.13;;;;;;;4.65;75.92;97275.13;5055399;28;20099;-66
2021/10/02 04:14:34;;;;;;;9.23;4.55;;;;;;;4.65;75.30;97267.34;5055404;28;20086;-65
2021/10/02 04:17:00;;;;;;;8.93;4.03;;;;;;;4.72;74.79;97278.53;5055465;28;20082;-65
2021/10/02 04:19:26;;;;;;;8.35;4.55;;;;;;;4.72;74.71;97275.97;5054824;28;20021;-65
2021/10/02 04:21:52;;;;;;;6.40;4.30;;;;;;;4.74;74.42;97270.75;5055201;28;20087;-65
2021/10/02 04:24:18;;;;;;;6.93;4.30;;;;;;;4.76;74.67;97277.66;5053943;28;20487;-66
2021/10/02 04:26:44;;;;;;;8.80;4.78;;;;;;;4.74;74.50;97278.53;5054999;28;20055;-65
2021/10/02 04:29:10;;;;;;;10.27;4.60;;;;;;;4.76;74.51;97277.66;5055089;28;20060;-65
2021/10/02 04:31:36;;;;;;;8.02;4.13;;;;;;;4.78;74.65;97275.06;5054977;28;20017;-65
2021/10/02 04:34:02;;;;;;;13.07;4.85;;;;;;;4.84;74.79;97275.06;5053584;28;20025;-65
2021/10/02 04:36:27;;;;;;;5.63;3.92;;;;;;;4.86;74.56;97275.91;5054588;28;20065;-65
2021/10/02 04:38:54;;;;;;;8.13;4.85;;;;;;;4.88;74.47;97283.69;5054922;28;20475;-65
2021/10/02 04:41:20;;;;;;;11.80;4.40;;;;;;;4.94;75.26;97283.69;5054763;28;20028;-65
2021/10/02 04:43:46;;;;;;;9.32;4.32;;;;;;;5.00;75.40;97287.97;5054680;28;20021;-65
2021/10/02 04:46:14;;;;;;;7.63;4.50;;;;;;;4.99;75.34;97288.81;5054661;28;20479;-65
2021/10/02 04:48:41;;;;;;;7.13;4.53;;;;;;;5.05;75.85;97281.03;5054759;28;20013;-65
2021/10/02 04:51:08;;;;;;;16.30;4.60;;;;;;;5.13;75.70;97284.47;5054701;28;20023;-65
2021/10/02 04:53:33;;;;;;;9.65;5.53;;;;;;;5.17;76.17;97283.56;5054500;28;20475;-65
2021/10/02 04:56:00;;;;;;;8.20;5.10;;;;;;;5.21;76.21;97291.34;5054480;28;20120;-65
2021/10/02 04:58:27;;;;;;;9.45;5.60;;;;;;;5.26;76.34;97286.97;5054438;28;20021;-65
2021/10/02 05:00:54;;;;;;;8.23;4.43;;;;;;;5.38;76.90;97289.53;5054437;28;20030;-65
2021/10/02 05:03:20;;;;;;;12.73;4.93;;;;;;;5.54;77.02;97292.06;5054412;28;20021;-65
2021/10/02 05:05:45;;;;;;;9.20;4.75;;;;;;;5.66;76.75;97289.38;5054286;28;20107;-65
2021/10/02 05:08:11;;;;;;;10.43;4.38;;;;;;;5.76;76.63;97290.19;5054320;28;20466;-65
2021/10/02 05:10:37;;;;;;;13.07;4.80;;;;;;;5.91;76.70;97285.75;5054261;28;20028;-65
2021/10/02 05:13:02;;;;;;;7.43;4.22;;;;;;;6.15;76.82;97284.72;5054160;28;20074;-65
2021/10/02 05:15:28;;;;;;;5.15;4.20;;;;;;;6.43;76.69;97286.22;5054107;28;20035;-65
2021/10/02 05:17:53;;;;;;;9.15;4.03;;;;;;;6.75;76.17;97285.03;5054204;28;20390;-66
2021/10/02 05:20:19;;;;;;;8.52;3.67;;;;;;;7.46;74.62;97287.63;5054037;28;20025;-66
2021/10/02 05:22:44;;;;;;;5.70;3.33;;;;;;;8.76;71.69;97290.84;5054019;28;20021;-66
2021/10/02 05:25:10;;;;;;;4.20;3.15;;;;;;;10.22;67.04;97292.09;5053859;28;20028;-65
2021/10/02 05:27:36;;;;;;;6.50;3.30;;;;;;;11.80;61.32;97286.03;5054012;28;20056;-66
2021/10/02 05:30:02;;;;;;;10.90;2.88;;;;;;;13.43;53.52;97284.09;5053210;28;20375;-64
2021/10/02 05:32:27;;;;;;;7.50;2.13;;;;;;;14.78;51.35;97282.28;5053756;28;20033;-66
2021/10/02 05:34:53;;;;;;;6.35;2.17;;;;;;;15.77;48.63;97286.66;5053890;28;20029;-66
2021/10/02 05:37:19;;;;;;;5.32;2.55;;;;;;;16.18;48.60;97277.72;5053459;28;20483;-65
2021/10/02 05:39:44;;;;;;;3.90;2.10;;;;;;;16.72;42.26;97281.22;5053752;28;20466;-66
2021/10/02 05:42:10;;;;;;;6.80;2.55;;;;;;;16.66;44.18;97280.63;5053793;28;20108;-66
2021/10/02 05:44:35;;;;;;;6.75;2.60;;;;;;;16.82;44.71;97277.16;5053532;28;20021;-64
2021/10/02 05:47:01;;;;;;;6.63;2.38;;;;;;;17.70;42.81;97280.53;5053515;28;20069;-67
2021/10/02 05:49:27;;;;;;;5.03;2.25;;;;;;;18.03;40.98;97275.13;5053313;28;20066;-65
2021/10/02 05:51:53;;;;;;;6.05;1.63;;;;;;;18.71;39.08;97280.13;5053569;28;20104;-65
2021/10/02 05:54:19;;;;;;;3.58;2.08;;;;;;;18.69;38.73;97277.59;5053466;28;20063;-66
2021/10/02 05:56:44;;;;;;;7.32;2.10;;;;;;;18.96;38.09;97280.47;5053433;28;20100;-64
2021/10/02 05:59:10;;;;;;;8.35;2.70;;;;;;;19.35;37.41;97279.00;5053287;28;20036;-64
2021/10/02 06:01:36;;;;;;;8.10;2.08;;;;;;;18.98;36.35;97282.06;5053338;28;20022;-65
2021/10/02 06:04:02;;;;;;;9.23;2.33;;;;;;;19.64;36.21;97278.97;5053269;28;20028;-67
2021/10/02 06:06:27;;;;;;;4.38;2.28;;;;;;;19.87;34.55;97279.28;5053174;28;20466;-65
2021/10/02 06:08:53;;;;;;;7.78;1.75;;;;;;;18.85;36.21;97276.69;5053186;28;20028;-64
2021/10/02 06:11:19;;;;;;;5.38;2.03;;;;;;;18.43;36.65;97276.47;5053229;28;20017;-66
2021/10/02 06:13:46;;;;;;;4.80;2.10;;;;;;;18.27;37.44;97269.41;5053230;28;20438;-65
2021/10/02 06:16:11;;;;;;;3.83;2.08;;;;;;;17.88;38.01;97276.03;5053176;28;20053;-66
2021/10/02 06:18:37;;;;;;;5.70;2.10;;;;;;;17.05;38.65;97286.56;5053064;28;20052;-64
2021/10/02 06:21:03;;;;;;;4.13;2.20;;;;;;;16.45;40.92;97277.28;5053015;28;20025;-64
2021/10/02 06:23:29;;;;;;;4.60;2.40;;;;;;;16.89;40.75;97275.09;5053036;28;20489;-64
2021/10/02 06:25:55;;;;;;;8.02;2.28;;;;;;;17.60;38.34;97277.53;5052974;28;20024;-66
2021/10/02 06:28:21;;;;;;;6.40;1.98;;;;;;;17.64;37.84;97287.88;5053130;28;20429;-63
2021/10/02 06:30:47;;;;;;;4.10;2.13;;;;;;;17.50;38.19;97274.56;5053003;28;20082;-65
2021/10/02 06:33:13;;;;;;;5.05;1.83;;;;;;;17.97;37.78;97278.13;5052998;28;20079;-66
2021/10/02 06:35:39;;;;;;;4.20;2.17;;;;;;;18.15;36.63;97278.09;5052591;28;20462;-63
2021/10/02 06:38:04;;;;;;;5.90;1.73;;;;;;;17.58;38.24;97284.72;5052928;28;20021;-63
2021/10/02 06:40:30;;;;;;;5.60;2.00;;;;;;;17.05;38.42;97286.56;5052845;28;20047;-65
2021/10/02 06:42:56;;;;;;;5.65;2.45;;;;;;;16.75;40.67;97286.34;5056222;28;20021;-64
2021/10/02 06:45:22;;;;;;;4.57;1.98;;;;;;;16.22;40.84;97287.19;5057002;28;20075;-66
2021/10/02 06:47:47;;;;;;;4.82;2.20;;;;;;;16.62;39.70;97281.69;5056902;28;20049;-63
2021/10/02 06:50:13;;;;;;;4.50;2.10;;;;;;;17.00;39.59;97285.06;5056867;28;21100;-66
2021/10/02 06:52:38;;;;;;;4.63;1.80;;;;;;;17.24;38.68;97285.59;5056864;28;20021;-65
2021/10/02 06:55:07;;;;;;;4.35;2.33;;;;;;;16.81;38.96;97283.41;5056779;28;20021;-65
2021/10/02 06:57:33;;;;;;;5.45;1.98;;;;;;;16.95;40.20;97289.75;5056735;28;20025;-64
2021/10/02 06:59:59;;;;;;;5.55;2.10;;;;;;;16.98;38.09;97287.78;5056713;28;20363;-64
2021/10/02 07:02:25;;;;;;;6.85;2.40;;;;;;;16.53;38.54;97285.66;5056686;28;20075;-64
2021/10/02 07:04:52;;;;;;;5.82;2.35;;;;;;;16.39;39.58;97293.41;5056612;28;20367;-64
2021/10/02 07:07:18;;;;;;;6.93;1.98;;;;;;;16.44;40.00;97288.78;5056532;28;20083;-64
2021/10/02 07:09:45;;;;;;;8.20;2.75;;;;;;;16.48;39.91;97287.69;5056505;28;20056;-65
2021/10/02 07:12:11;;;;;;;4.63;2.10;;;;;;;17.14;40.70;97287.03;5056420;28;20017;-62
2021/10/02 07:14:37;;;;;;;5.45;2.15;;;;;;;17.77;37.00;97293.34;5056477;28;20478;-65
2021/10/02 07:17:02;;;;;;;3.72;1.55;;;;;;;17.63;36.43;97294.09;5056544;28;20478;-65
2021/10/02 07:19:28;;;;;;;4.60;2.03;;;;;;;17.80;37.12;97292.31;5056485;28;20475;-66
2021/10/02 07:21:53;;;;;;;4.63;2.00;;;;;;;17.72;36.84;97289.22;5056310;28;20078;-63
2021/10/02 07:24:19;;;;;;;6.53;2.58;;;;;;;17.00;38.09;97293.84;5056253;28;20056;-65
2021/10/02 07:26:45;;;;;;;7.03;2.38;;;;;;;17.27;37.40;97295.16;5056223;28;20070;-63
2021/10/02 07:29:11;;;;;;;3.75;2.08;;;;;;;16.96;37.62;97291.44;5056187;28;20047;-63
2021/10/02 07:31:37;;;;;;;3.17;1.88;;;;;;;16.86;38.60;97293.72;5056090;28;20040;-63
2021/10/02 07:34:03;;;;;;;5.82;2.10;;;;;;;16.47;39.02;97296.53;5056011;28;20021;-64
2021/10/02 07:36:29;;;;;;;5.30;2.20;;;;;;;16.48;38.93;97305.28;5055714;28;20049;-65
2021/10/02 07:38:55;;;;;;;5.10;1.60;;;;;;;16.42;39.35;97288.84;5056105;28;20048;-64
2021/10/02 07:41:22;;;;;;;3.60;2.00;;;;;;;16.99;38.56;97299.22;5055910;28;20024;-63
2021/10/02 07:43:55;;;;;;;3.78;1.83;;;;;;;16.67;36.79;97299.94;5056017;28;20104;-65
2021/10/02 07:46:21;;;;;;;6.93;1.90;;;;;;;16.39;37.39;97289.00;5055802;28;20120;-65
2021/10/02 07:48:52;;;;;;;5.35;2.00;;;;;;;16.65;37.52;97296.53;5055871;28;20043;-63
2021/10/02 07:51:18;;;;;;;4.03;1.70;;;;;;;16.66;37.78;97291.19;5055828;28;20029;-64
2021/10/02 07:53:48;;;;;;;5.60;1.98;;;;;;;16.76;37.99;97285.41;5054977;28;20032;-66
2021/10/02 07:56:14;;;;;;;4.00;2.23;;;;;;;16.93;38.06;97284.53;5055722;28;20445;-65
2021/10/02 07:58:40;;;;;;;3.67;1.83;;;;;;;16.86;37.59;97288.44;5055534;28;20021;-64
2021/10/02 08:01:06;;;;;;;6.28;2.30;;;;;;;16.63;38.79;97287.81;5055450;28;20024;-65
2021/10/02 08:03:32;;;;;;;6.70;1.70;;;;;;;16.86;37.75;97277.88;5055451;28;20024;-64
2021/10/02 08:06:00;;;;;;;5.85;2.00;;;;;;;17.24;38.67;97290.88;5055608;28;20107;-64
2021/10/02 08:08:25;;;;;;;5.63;2.05;;;;;;;17.45;37.70;97288.03;5055356;28;20020;-62
2021/10/02 08:10:51;;;;;;;8.27;1.77;;;;;;;17.94;37.29;97279.16;5055329;28;20024;-64
2021/10/02 08:13:18;;;;;;;7.32;2.03;;;;;;;18.33;35.21;97272.66;5055317;28;20507;-64
2021/10/02 08:15:48;;;;;;;3.38;1.38;;;;;;;18.57;35.13;97280.94;5055179;28;20051;-64
2021/10/02 08:18:17;;;;;;;7.50;1.70;;;;;;;18.71;34.34;97280.13;5055354;28;20020;-64
2021/10/02 08:20:45;;;;;;;5.70;1.80;;;;;;;18.63;34.00;97280.59;5055239;28;20047;-63
2021/10/02 08:23:14;;;;;;;2.97;1.77;;;;;;;18.36;35.24;97288.38;5055073;28;20032;-64
2021/10/02 08:25:44;;;;;;;3.47;1.80;;;;;;;17.72;34.22;97287.44;5054924;28;20021;-63
2021/10/02 08:28:10;;;;;;;5.90;2.35;;;;;;;17.26;35.24;97286.38;5054997;28;20024;-65
2021/10/02 08:30:36;;;;;;;3.25;1.85;;;;;;;17.35;38.67;97282.38;5054944;28;20029;-63
2021/10/02 08:33:02;;;;;;;7.20;1.60;;;;;;;17.81;35.63;97276.38;5055065;28;20024;-64
2021/10/02 08:35:28;;;;;;;4.22;1.63;;;;;;;18.30;35.61;97285.13;5054589;28;20095;-64
2021/10/02 08:37:53;;;;;;;8.20;1.80;;;;;;;18.47;35.38;97282.44;5055126;28;20029;-65
2021/10/02 08:40:20;;;;;;;8.15;2.30;;;;;;;18.68;36.01;97282.97;5054783;28;20470;-64
2021/10/02 08:42:46;;;;;;;4.10;1.77;;;;;;;18.64;34.06;97284.97;5054779;28;20025;-65
2021/10/02 08:45:14;;;;;;;3.38;1.90;;;;;;;18.34;34.22;97285.81;5054685;28;20024;-64
2021/10/02 08:47:43;;;;;;;6.15;1.88;;;;;;;18.04;36.16;97284.81;5054705;28;20486;-64
2021/10/02 08:50:13;;;;;;;3.97;1.92;;;;;;;17.91;36.24;97278.50;5054699;28;20052;-63
2021/10/02 08:52:39;;;;;;;4.15;1.92;;;;;;;17.74;35.64;97282.06;5054749;28;20025;-65
2021/10/02 08:55:06;;;;;;;8.02;1.85;;;;;;;17.71;37.16;97280.47;5054671;28;20055;-65
2021/10/02 08:57:35;;;;;;;7.43;2.50;;;;;;;17.77;37.86;97282.78;5054672;28;20037;-64
2021/10/02 09:00:03;;;;;;;4.50;2.28;;;;;;;17.90;37.64;97277.63;5054459;28;20102;-64
2021/10/02 09:02:29;;;;;;;7.43;2.00;;;;;;;17.87;37.56;97280.44;5054480;28;20025;-63
2021/10/02 09:04:56;;;;;;;7.30;2.00;;;;;;;17.91;37.51;97283.78;5053452;28;20382;-65
2021/10/02 09:07:23;;;;;;;5.28;1.95;;;;;;;18.09;37.29;97273.94;5054240;28;20099;-63
2021/10/02 09:09:50;;;;;;;3.55;1.95;;;;;;;18.27;38.01;97273.88;5054239;28;20083;-65
2021/10/02 09:12:19;;;;;;;3.55;1.75;;;;;;;18.51;35.65;97274.22;5054172;28;20035;-65
2021/10/02 09:14:45;;;;;;;5.78;2.08;;;;;;;18.59;34.55;97271.13;5054175;28;20471;-65
2021/10/02 09:17:11;;;;;;;7.72;2.10;;;;;;;18.24;35.37;97277.53;5054062;28;20017;-64
2021/10/02 09:19:37;;;;;;;6.28;1.75;;;;;;;18.09;36.49;97266.00;5054207;28;20024;-63
2021/10/02 09:22:10;;;;;;;3.75;1.70;;;;;;;18.24;37.31;97260.81;5054034;28;20036;-65
2021/10/02 09:24:43;;;;;;;4.90;2.60;;;;;;;17.75;35.12;97263.47;5054045;28;20021;-64
2021/10/02 09:27:16;;;;;;;4.07;1.85;;;;;;;17.42;37.13;97269.69;5053846;28;20364;-65
2021/10/02 09:29:45;;;;;;;4.13;1.38;;;;;;;17.62;37.11;97262.44;5053965;28;20028;-64
2021/10/02 09:32:14;;;;;;;10.50;2.15;;;;;;;17.85;37.06;97253.22;5053805;28;20033;-63
2021/10/02 09:34:51;;;;;;;5.78;2.10;;;;;;;18.12;35.95;97247.31;5053767;28;20025;-65
2021/10/02 09:37:18;;;;;;;2.83;2.05;;;;;;;18.52;36.52;97253.88;5053548;28;20064;-65
2021/10/02 09:39:45;;;;;;;3.47;2.00;;;;;;;18.80;35.92;97245.16;5053747;28;20017;-64
2021/10/02 09:42:26;;;;;;;5.55;1.73;;;;;;;19.00;35.27;97247.53;5053608;28;20029;-64
2021/10/02 09:44:52;;;;;;;;;;;;;;;19.05;33.85;97251.59;5054152;28;20044;-64
2021/10/02 09:47:19;;;;;;;3.72;1.98;;;;;;;18.94;35.30;97240.81;5053441;28;20371;-64
2021/10/02 09:49:47;;;;;;;4.43;2.10;;;;;;;18.63;37.17;97247.97;5053453;28;20087;-63
2021/10/02 09:52:39;;;;;;;5.07;1.67;;;;;;;18.50;35.36;97234.56;5053440;28;20386;-65
2021/10/02 09:55:34;;;;;;;5.15;2.80;;;;;;;18.63;36.33;97237.38;5053488;28;20051;-63
2021/10/02 09:58:09;;;;;;;4.60;1.80;;;;;;;18.55;35.95;97240.47;5048847;28;20037;-65
2021/10/02 10:00:40;;;;;;;4.13;1.77;;;;;;;18.40;36.12;97235.16;5053418;28;20025;-65
2021/10/02 10:03:09;;;;;;;4.07;2.00;;;;;;;18.40;35.49;97229.84;5053458;28;20106;-63
2021/10/02 10:05:37;;;;;;;4.13;1.98;;;;;;;18.33;35.78;97228.47;5053230;28;20028;-63
2021/10/02 10:08:06;;;;;;;6.03;1.75;;;;;;;18.24;37.50;97234.34;5053189;28;20033;-65
2021/10/02 10:10:37;;;;;;;6.45;2.00;;;;;;;18.18;36.92;97228.44;5053245;28;20028;-64
2021/10/02 10:13:16;;;;;;;3.05;2.03;;;;;;;18.42;36.91;97220.00;5053325;28;20060;-64
2021/10/02 10:15:55;;;;;;;2.83;1.77;;;;;;;18.76;35.53;97211.84;5053140;28;20032;-65
2021/10/02 10:18:30;;;;;;;4.70;1.92;;;;;;;18.87;35.24;97218.28;5053054;28;20039;-64
2021/10/02 10:21:00;;;;;;;6.30;1.98;;;;;;;18.58;35.11;97221.75;5053060;28;20544;-65
2021/10/02 10:23:35;;;;;;;4.95;1.85;;;;;;;18.29;34.62;97225.19;5052987;28;20017;-65
2021/10/02 10:26:17;;;;;;;5.95;2.00;;;;;;;18.18;36.32;97215.19;5052850;28;20025;-66
2021/10/02 10:28:48;;;;;;;3.95;2.00;;;;;;;17.90;34.83;97206.19;5053212;28;20379;-65
2021/10/02 10:31:20;;;;;;;3.97;1.63;;;;;;;18.07;35.39;97207.00;5053069;28;20021;-65
2021/10/02 10:33:48;;;;;;;5.15;1.98;;;;;;;18.13;35.62;97204.03;5052969;28;20028;-65
2021/10/02 10:36:16;;;;;;;5.85;1.55;;;;;;;18.14;35.87;97196.94;5052736;28;20044;-65
2021/10/02 10:38:44;;;;;;;2.45;1.80;;;;;;;18.23;37.41;97198.19;5052955;28;20072;-65
2021/10/02 10:41:11;;;;;;;8.13;1.88;;;;;;;18.11;34.85;97200.63;5052901;28;20021;-64
2021/10/02 10:43:37;;;;;;;3.50;2.10;;;;;;;18.03;35.37;97194.91;5052894;28;20478;-63
2021/10/02 10:46:08;;;;;;;8.88;2.22;;;;;;;17.73;36.52;97203.66;5052844;28;20051;-63
2021/10/02 10:48:34;;;;;;;;;;;;;;;17.48;35.90;97192.66;5053331;28;20043;-65
2021/10/02 10:51:13;;;;;;;7.88;2.13;;;;;;;17.32;36.26;97200.59;5051372;28;19917;-64
2021/10/02 10:53:45;;;;;;;5.03;2.05;;;;;;;17.41;37.14;97186.88;5042397;28;20021;-64
2021/10/02 10:56:12;;;;;;;5.82;1.95;;;;;;;17.63;37.00;97190.06;5032923;28;20056;-65
2021/10/02 10:58:39;;;;;;;5.57;1.50;;;;;;;17.75;37.19;97188.53;5045517;28;20025;-65
2021/10/02 11:01:09;;;;;;;5.95;2.08;;;;;;;17.65;37.65;97188.22;5052664;28;20022;-65
2021/10/02 11:03:48;;;;;;;6.97;2.03;;;;;;;17.62;37.60;97186.59;5043531;28;20462;-63
2021/10/02 11:06:16;;;;;;;5.47;2.08;;;;;;;17.72;38.20;97178.97;5052716;28;20025;-64
2021/10/02 11:08:59;;;;;;;6.43;2.00;;;;;;;17.75;36.94;97178.81;5050258;28;20130;-66
2021/10/02 11:11:51;;;;;;;2.90;1.80;;;;;;;17.78;36.48;97164.53;5043500;28;20018;-64
2021/10/02 11:14:46;;;;;;;6.13;2.35;;;;;;;17.85;39.52;97171.19;5022615;28;20123;-64
2021/10/02 11:17:13;;;;;;;4.38;2.13;;;;;;;17.88;39.91;97164.88;5029987;28;20484;-65
2021/10/02 11:19:40;;;;;;;3.78;2.22;;;;;;;17.88;38.25;97168.38;5032718;28;20040;-64
2021/10/02 11:22:30;;;;;;;6.28;2.40;;;;;;;17.98;38.61;97165.19;5048308;28;20063;-65
2021/10/02 11:24:58;;;;;;;9.82;2.45;;;;;;;18.17;37.29;97160.56;5035153;28;20435;-66
2021/10/02 11:27:27;;;;;;;2.20;1.67;;;;;;;18.41;37.30;97169.75;5050676;28;20498;-64
2021/10/02 11:29:53;;;;;;;7.97;2.10;;;;;;;18.61;37.46;97167.72;5047624;28;20064;-65
2021/10/02 11:32:29;;;;;;;7.13;2.15;;;;;;;18.84;36.80;97171.59;5039290;28;20021;-66
2021/10/02 11:35:17;;;;;;;2.20;1.70;;;;;;;18.87;34.06;97160.81;5044947;28;20079;-65
2021/10/02 11:37:58;;;;;;;3.85;2.00;;;;;;;18.81;34.95;97156.75;5054669;28;20037;-66
2021/10/02 11:40:36;;;;;;;3.13;1.85;;;;;;;18.89;34.75;97156.28;5043957;28;20040;-65
2021/10/02 11:43:17;;;;;;;9.73;2.50;;;;;;;19.00;34.99;97150.31;5035052;28;20501;-66
2021/10/02 11:45:45;;;;;;;6.88;1.67;;;;;;;19.06;34.16;97149.06;5035702;28;20091;-65
2021/10/02 11:48:13;;;;;;;5.13;1.70;;;;;;;19.18;35.12;97147.47;5035782;28;20033;-66
2021/10/02 11:50:40;;;;;;;3.90;1.63;;;;;;;19.38;35.04;97138.22;5035677;28;20057;-66
2021/10/02 11:53:06;;;;;;;7.18;2.13;;;;;;;19.41;34.56;97142.47;5035757;28;20022;-64
2021/10/02 11:55:34;;;;;;;4.10;1.98;;;;;;;19.31;34.44;97140.44;5035837;28;20036;-65
2021/10/02 12:00:37;;;;;;;6.38;1.85;;;;;;;19.07;34.83;97134.84;5035482;28;20048;-65
2021/10/02 12:03:04;;;;;;;7.90;2.00;;;;;;;19.17;35.12;97136.00;5035707;28;20021;-65
2021/10/02 12:05:30;;;;;;;7.20;1.80;;;;;;;19.27;36.03;97125.66;5035478;28;20030;-65
2021/10/02 12:07:56;;;;;;;10.93;2.58;;;;;;;19.29;35.94;97130.84;5035459;28;20026;-64
2021/10/02 12:10:22;;;;;;;5.55;1.90;;;;;;;19.11;34.79;97131.09;5035311;28;20361;-65
2021/10/02 12:12:47;;;;;;;2.80;1.55;;;;;;;18.98;34.33;97128.34;5035382;28;20026;-64
2021/10/02 12:15:34;;;;;;;5.28;2.00;;;;;;;19.08;34.63;97125.16;5035510;28;20026;-64
2021/10/02 12:18:00;;;;;;;2.60;1.63;;;;;;;19.20;35.40;97124.34;5035198;28;20033;-65
2021/10/02 12:20:40;;;;;;;4.32;1.73;;;;;;;19.24;34.25;97122.34;5035195;28;20018;-66
2021/10/02 12:23:08;;;;;;;4.82;2.25;;;;;;;19.08;34.75;97125.16;5035189;28;20021;-65
2021/10/02 12:25:33;;;;;;;2.45;1.58;;;;;;;19.00;34.37;97120.28;5035089;28;20025;-65
2021/10/02 12:28:00;;;;;;;6.22;2.17;;;;;;;18.90;34.86;97120.03;5037124;28;20387;-66
2021/10/02 12:30:25;;;;;;;3.85;1.80;;;;;;;18.82;35.90;97133.75;5054965;28;20021;-65
2021/10/02 12:33:02;;;;;;;7.07;1.70;;;;;;;18.65;35.47;97124.19;5055051;28;20035;-64
2021/10/02 12:35:28;;;;;;;2.67;1.73;;;;;;;18.55;35.30;97126.56;5054795;28;20376;-65
2021/10/02 12:37:56;;;;;;;12.77;2.17;;;;;;;18.60;35.31;97129.75;5055016;28;20062;-65
2021/10/02 12:40:25;;;;;;;7.30;2.03;;;;;;;18.54;34.52;97127.47;5054524;28;20029;-64
2021/10/02 12:42:54;;;;;;;5.32;1.73;;;;;;;18.60;35.68;97126.28;5054775;28;20025;-64